Time;durP1;ratioP1;P1;durP2;ratioP2;P2;SDS_P1;SDS_P2;PMS_P1;PMS_P2;Temp;Humidity;BMP_temperature;BMP_pressure;BME280_temperature;BME280_humidity;BME280_pressure;Samples;Min_cycle;Max_cycle;Signal;HPM_P1;HPM_P2
2023/06/27 00:02:20;;;;;;;4.05;1.90;;;;;;;21.11;79.62;99413.97;5092030;28;20404;-80
2023/06/27 00:04:47;;;;;;;5.10;1.35;;;;;;;21.30;78.88;99450.34;5091382;28;20489;-80
2023/06/27 00:07:13;;;;;;;5.50;3.45;;;;;;;21.01;80.05;99436.13;5093590;28;20036;-81
2023/06/27 00:09:38;;;;;;;2.55;1.65;;;;;;;21.08;80.24;99453.53;5090966;28;20489;-81
2023/06/27 00:12:05;;;;;;;2.30;1.23;;;;;;;21.02;79.76;99419.06;5091245;28;20039;-81
2023/06/27 00:14:36;;;;;;;1.95;1.42;;;;;;;21.03;79.29;99426.16;5091141;28;20031;-80
2023/06/27 00:17:04;;;;;;;1.80;1.02;;;;;;;21.07;79.19;99457.19;5091132;28;20046;-80
2023/06/27 00:19:31;;;;;;;2.15;1.48;;;;;;;21.03;78.99;99443.09;5100910;28;20497;-80
2023/06/27 00:21:56;;;;;;;1.88;1.65;;;;;;;21.19;78.74;99453.72;5111407;28;20027;-81
2023/06/27 00:24:23;;;;;;;1.73;1.25;;;;;;;21.12;79.07;99436.28;5091356;28;20461;-80
2023/06/27 00:26:49;;;;;;;1.13;0.95;;;;;;;21.17;78.80;99442.22;5110270;28;20027;-80
2023/06/27 00:29:14;;;;;;;4.90;1.77;;;;;;;21.12;79.27;99436.28;5073283;28;20058;-80
2023/06/27 00:31:40;;;;;;;4.40;1.92;;;;;;;21.29;79.12;99452.19;5097787;28;20072;-80
2023/06/27 00:34:06;;;;;;;2.50;1.88;;;;;;;21.02;79.81;99430.66;5090624;28;20508;-80
2023/06/27 00:36:32;;;;;;;3.60;2.00;;;;;;;21.25;79.51;99455.16;5101881;28;20030;-80
2023/06/27 00:38:57;;;;;;;3.42;1.73;;;;;;;21.03;79.74;99436.88;5109326;28;20031;-80
2023/06/27 00:41:22;;;;;;;1.52;1.30;;;;;;;21.19;79.74;99468.94;5110915;28;20161;-80
2023/06/27 00:43:48;;;;;;;1.85;1.20;;;;;;;21.00;79.97;99442.44;5110977;28;20457;-80
2023/06/27 00:46:24;;;;;;;2.47;1.40;;;;;;;21.02;79.85;99432.47;5110715;28;20182;-80
2023/06/27 00:48:50;;;;;;;2.72;1.85;;;;;;;21.01;79.38;99422.72;5109071;28;20519;-80
2023/06/27 00:51:15;;;;;;;3.60;2.28;;;;;;;21.14;80.00;99463.03;5091703;28;20043;-80
2023/06/27 00:53:41;;;;;;;3.50;2.40;;;;;;;21.04;79.63;99438.59;5090723;28;20509;-79
2023/06/27 00:56:07;;;;;;;4.85;2.63;;;;;;;20.87;79.69;99445.03;5089963;28;20111;-80
2023/06/27 00:58:33;;;;;;;3.47;1.80;;;;;;;20.58;80.16;99415.47;5090345;28;20024;-79
2023/06/27 01:01:00;;;;;;;9.75;2.70;;;;;;;20.92;79.48;99457.16;5091028;28;20493;-79
2023/06/27 01:03:32;;;;;;;4.97;2.75;;;;;;;20.79;79.85;99456.22;5090919;28;20486;-79
2023/06/27 01:06:01;;;;;;;3.08;1.60;;;;;;;20.68;80.07;99447.94;5090088;28;20482;-79
2023/06/27 01:08:44;;;;;;;5.05;1.67;;;;;;;20.64;79.92;99433.00;5090271;28;20024;-79
2023/06/27 01:11:20;;;;;;;2.72;1.83;;;;;;;20.73;79.98;99449.41;5090173;28;20035;-79
2023/06/27 01:13:50;;;;;;;2.20;1.20;;;;;;;20.67;80.19;99436.38;5091283;28;20047;-79
2023/06/27 01:16:19;;;;;;;2.05;1.25;;;;;;;20.59;80.35;99430.59;5090248;28;20028;-79
2023/06/27 01:18:47;;;;;;;1.85;1.20;;;;;;;20.61;80.65;99443.91;5097167;28;20027;-80
2023/06/27 01:21:12;;;;;;;2.13;1.52;;;;;;;20.68;80.24;99451.50;5110038;28;20409;-80
2023/06/27 01:23:53;;;;;;;2.85;2.05;;;;;;;20.79;79.87;99455.31;5106497;28;20036;-80
2023/06/27 01:26:19;;;;;;;2.35;1.92;;;;;;;20.69;80.11;99438.97;5089649;28;20028;-80
2023/06/27 01:28:45;;;;;;;2.63;1.40;;;;;;;20.91;79.84;99474.22;5092789;28;20020;-80
2023/06/27 01:31:22;;;;;;;2.42;1.50;;;;;;;20.69;80.09;99437.13;5093158;28;20064;-80
2023/06/27 01:34:08;;;;;;;2.75;1.48;;;;;;;20.74;80.36;99447.56;5100025;28;20501;-80
2023/06/27 01:37:02;;;;;;;2.00;1.02;;;;;;;20.49;80.69;99418.69;5108248;28;20085;-80
2023/06/27 01:39:36;;;;;;;6.23;2.23;;;;;;;20.80;80.74;99467.78;5113549;28;20098;-80
2023/06/27 01:42:16;;;;;;;4.03;2.10;;;;;;;20.38;81.61;99430.06;5113307;28;20817;-80
2023/06/27 01:44:46;;;;;;;2.97;1.95;;;;;;;20.57;81.54;99459.28;5111558;28;20051;-80
2023/06/27 01:47:12;;;;;;;4.03;1.75;;;;;;;20.44;81.96;99442.22;5107110;28;20039;-80
2023/06/27 01:49:38;;;;;;;4.05;1.15;;;;;;;20.25;82.37;99410.31;5093726;28;20042;-80
2023/06/27 01:52:04;;;;;;;2.60;1.08;;;;;;;20.46;81.77;99449.19;5113519;28;20028;-80
2023/06/27 01:54:29;;;;;;;2.45;1.92;;;;;;;20.28;82.32;99423.50;5112970;28;20578;-81
2023/06/27 01:56:54;;;;;;;8.18;1.30;;;;;;;20.26;82.00;99418.25;5114057;28;20028;-80
2023/06/27 01:59:20;;;;;;;1.90;1.38;;;;;;;20.44;82.23;99452.94;5096351;28;20051;-80
2023/06/27 02:01:46;;;;;;;2.53;1.10;;;;;;;20.41;82.19;99458.50;5093686;28;20173;-80
2023/06/27 02:04:11;;;;;;;4.88;1.73;;;;;;;20.30;82.57;99445.72;5092729;28;20118;-80
2023/06/27 02:06:37;;;;;;;3.28;1.63;;;;;;;20.31;81.87;99439.41;5093615;28;20036;-80
2023/06/27 02:09:03;;;;;;;3.60;2.08;;;;;;;20.29;81.78;99465.41;5107776;28;20483;-80
2023/06/27 02:11:29;;;;;;;5.00;2.53;;;;;;;20.07;82.07;99439.91;5112115;28;20024;-80
2023/06/27 02:13:54;;;;;;;2.45;1.58;;;;;;;19.96;82.23;99427.13;5113269;28;20027;-79
2023/06/27 02:16:19;;;;;;;2.75;1.58;;;;;;;19.92;83.19;99441.66;5104300;28;20020;-80
2023/06/27 02:18:45;;;;;;;5.28;2.88;;;;;;;19.86;82.98;99433.97;5105582;28;20024;-79
2023/06/27 02:21:11;;;;;;;14.02;1.80;;;;;;;19.65;83.70;99403.94;5113725;28;20028;-79
2023/06/27 02:23:36;;;;;;;2.63;1.80;;;;;;;19.77;84.27;99447.88;5112921;28;20028;-79
2023/06/27 02:26:03;;;;;;;3.05;1.90;;;;;;;19.86;84.92;99463.41;5113582;28;20027;-79
2023/06/27 02:28:29;;;;;;;4.32;3.28;;;;;;;19.83;84.91;99455.56;5106800;28;20020;-79
2023/06/27 02:30:55;;;;;;;6.97;2.22;;;;;;;19.83;85.03;99458.22;5093147;28;20109;-79
2023/06/27 02:33:20;;;;;;;3.15;2.03;;;;;;;19.80;84.26;99445.91;5074492;28;20047;-80
2023/06/27 02:35:46;;;;;;;4.57;1.80;;;;;;;19.93;84.02;99471.97;5092910;28;20089;-80
2023/06/27 02:38:11;;;;;;;6.03;1.52;;;;;;;19.87;83.97;99467.81;5093589;28;20035;-79
2023/06/27 02:40:37;;;;;;;3.28;1.85;;;;;;;19.87;83.59;99465.16;5092279;28;20488;-79
2023/06/27 02:43:02;;;;;;;7.63;2.45;;;;;;;19.82;83.50;99437.78;5092462;28;20024;-79
2023/06/27 02:45:27;;;;;;;4.65;2.00;;;;;;;19.83;83.36;99444.84;5092955;28;20135;-80
2023/06/27 02:47:53;;;;;;;4.97;2.53;;;;;;;20.00;83.38;99465.28;5093766;28;20055;-80
2023/06/27 02:50:18;;;;;;;5.45;1.65;;;;;;;20.06;83.27;99475.66;5073922;28;20036;-81
2023/06/27 02:52:44;;;;;;;4.20;1.95;;;;;;;19.95;83.39;99454.00;5092480;28;20035;-81
2023/06/27 02:55:09;;;;;;;5.55;2.13;;;;;;;19.92;83.55;99451.50;5101111;28;20034;-82
2023/06/27 02:57:35;;;;;;;3.30;2.50;;;;;;;19.84;83.20;99420.66;5094159;28;20036;-81
2023/06/27 03:00:00;;;;;;;3.78;1.83;;;;;;;19.99;83.37;99448.38;5099516;28;20409;-80
2023/06/27 03:02:26;;;;;;;12.00;2.55;;;;;;;20.17;83.09;99451.81;5103569;28;20032;-81
2023/06/27 03:04:51;;;;;;;4.00;2.05;;;;;;;20.06;84.14;99459.59;5074779;28;20044;-82
2023/06/27 03:07:17;;;;;;;5.45;2.58;;;;;;;20.25;84.01;99463.88;5091982;28;20484;-81
2023/06/27 03:09:42;;;;;;;4.10;1.75;;;;;;;20.24;84.50;99459.47;5093232;28;20592;-82
2023/06/27 03:12:08;;;;;;;4.10;2.38;;;;;;;20.28;84.90;99461.88;5091664;28;20032;-81
2023/06/27 03:14:34;;;;;;;7.60;2.30;;;;;;;20.49;85.01;99481.16;5091999;28;20055;-81
2023/06/27 03:16:59;;;;;;;5.85;2.08;;;;;;;20.41;84.95;99451.31;5092023;28;20032;-81
2023/06/27 03:19:25;;;;;;;6.03;2.20;;;;;;;20.51;85.31;99460.53;5091717;28;20413;-81
2023/06/27 03:21:50;;;;;;;4.40;2.17;;;;;;;20.46;84.75;99441.16;5105229;28;20031;-82
2023/06/27 03:24:16;;;;;;;7.80;2.55;;;;;;;20.71;84.80;99474.56;5110337;28;20031;-81
2023/06/27 03:26:41;;;;;;;5.88;2.28;;;;;;;20.55;84.99;99462.03;5111953;28;20512;-81
2023/06/27 03:29:06;;;;;;;3.30;1.73;;;;;;;20.82;84.34;99477.47;5111680;28;20466;-80
2023/06/27 03:31:32;;;;;;;12.18;2.45;;;;;;;20.81;82.42;99450.75;5112203;28;20046;-80
2023/06/27 03:33:59;;;;;;;5.43;2.05;;;;;;;20.88;83.61;99487.81;5109571;27;20493;-80
2023/06/27 03:36:25;;;;;;;4.57;3.17;;;;;;;20.65;84.79;99465.09;5091317;28;20031;-81
2023/06/27 03:38:52;;;;;;;6.68;2.17;;;;;;;20.99;84.59;99497.88;5091674;28;20050;-81
2023/06/27 03:41:17;;;;;;;3.25;1.85;;;;;;;20.89;85.13;99467.22;5091378;28;20032;-81
2023/06/27 03:43:43;;;;;;;15.00;3.30;;;;;;;21.05;85.89;99500.19;5090822;28;20040;-81
2023/06/27 03:46:12;;;;;;;4.82;2.53;;;;;;;20.96;86.32;99463.22;5092402;28;21144;-81
2023/06/27 03:48:38;;;;;;;3.17;2.08;;;;;;;21.35;85.66;99504.59;5093429;28;20027;-81
2023/06/27 03:51:03;;;;;;;4.05;2.40;;;;;;;21.39;85.61;99468.53;5112071;28;20024;-82
2023/06/27 03:53:29;;;;;;;6.85;2.75;;;;;;;21.69;85.15;99466.72;5111513;28;20027;-83
2023/06/27 03:55:55;;;;;;;3.00;2.08;;;;;;;21.91;83.96;99477.78;5111470;28;20039;-83
2023/06/27 03:58:20;;;;;;;2.22;1.90;;;;;;;22.18;82.16;99480.47;5091320;28;20472;-83
2023/06/27 04:00:46;;;;;;;4.75;3.03;;;;;;;22.44;81.82;99498.53;5091516;28;20092;-83
2023/06/27 04:03:11;;;;;;;18.52;3.42;;;;;;;22.39;81.50;99465.75;5104655;28;20031;-82
2023/06/27 04:05:36;;;;;;;5.55;3.22;;;;;;;22.49;81.67;99477.56;5116039;27;20035;-83
2023/06/27 04:08:02;;;;;;;3.25;2.42;;;;;;;22.41;82.06;99461.13;5102941;27;20028;-82
2023/06/27 04:10:28;;;;;;;7.55;3.40;;;;;;;22.42;82.78;99469.06;5094124;28;20031;-83
2023/06/27 04:12:53;;;;;;;6.63;2.88;;;;;;;22.47;83.06;99477.66;5093470;28;20487;-82
2023/06/27 04:15:19;;;;;;;5.20;3.25;;;;;;;22.53;83.36;99488.00;5104541;28;20971;-81
2023/06/27 04:17:45;;;;;;;6.00;2.78;;;;;;;22.56;82.53;99486.09;5105800;28;20069;-84
2023/06/27 04:20:11;;;;;;;9.55;2.80;;;;;;;22.38;82.29;99456.81;5104654;27;20027;-83
2023/06/27 04:22:37;;;;;;;5.30;2.45;;;;;;;22.68;81.55;99485.25;5101374;27;20028;-83
2023/06/27 04:25:03;;;;;;;4.65;2.95;;;;;;;22.90;79.37;99487.31;5110624;28;20039;-83
2023/06/27 04:27:29;;;;;;;4.47;2.58;;;;;;;22.91;79.45;99491.75;5111430;28;21017;-83
2023/06/27 04:29:54;;;;;;;3.15;1.85;;;;;;;22.76;79.61;99493.66;5102372;28;20034;-85
2023/06/27 04:32:19;;;;;;;3.95;2.60;;;;;;;22.59;78.50;99484.03;5093303;28;20024;-85
2023/06/27 04:34:45;;;;;;;8.55;2.50;;;;;;;22.46;78.26;99440.16;5097466;28;20038;-85
2023/06/27 04:37:10;;;;;;;3.72;2.10;;;;;;;22.50;77.36;99465.88;5094779;28;20046;-86
2023/06/27 04:39:36;;;;;;;8.27;3.92;;;;;;;22.57;78.00;99485.09;5092234;28;20036;-85
2023/06/27 04:42:01;;;;;;;4.07;2.45;;;;;;;22.52;78.73;99477.34;5094153;28;20116;-86
2023/06/27 04:44:27;;;;;;;3.53;2.67;;;;;;;22.53;77.33;99498.75;5084598;28;21827;-85
2023/06/27 04:46:52;;;;;;;7.22;3.13;;;;;;;22.67;79.60;99513.09;5090770;28;20177;-85
2023/06/27 04:49:18;;;;;;;4.35;2.22;;;;;;;22.97;76.56;99504.75;5089204;28;20027;-84
2023/06/27 04:51:43;;;;;;;3.92;2.47;;;;;;;22.56;75.37;99473.50;5089184;28;20024;-86
2023/06/27 04:54:09;;;;;;;4.40;2.63;;;;;;;22.91;75.01;99485.47;5092518;28;20474;-85
2023/06/27 04:56:34;;;;;;;2.70;1.50;;;;;;;23.14;75.16;99502.72;5091579;28;20139;-84
2023/06/27 04:59:00;;;;;;;6.75;3.33;;;;;;;23.24;74.52;99510.03;5093615;28;20032;-84
2023/06/27 05:01:26;;;;;;;3.33;2.10;;;;;;;23.58;73.91;99518.41;5090166;28;20036;-85
2023/06/27 05:03:52;;;;;;;5.30;2.92;;;;;;;23.33;74.73;99507.69;5097349;27;20923;-84
2023/06/27 05:06:18;;;;;;;4.93;2.67;;;;;;;23.36;73.95;99470.66;5096788;28;20027;-83
2023/06/27 05:08:44;;;;;;;3.88;2.67;;;;;;;23.73;71.93;99507.50;5092753;28;20059;-84
2023/06/27 05:11:10;;;;;;;3.70;2.47;;;;;;;23.89;71.27;99488.44;5094916;28;20040;-84
2023/06/27 05:13:35;;;;;;;8.98;2.53;;;;;;;24.20;71.15;99507.69;5089821;28;20024;-86
2023/06/27 05:16:01;;;;;;;8.13;3.45;;;;;;;24.05;69.30;99483.63;5089892;28;20414;-84
2023/06/27 05:18:26;;;;;;;6.32;2.75;;;;;;;24.09;70.28;99513.88;5093240;28;20032;-84
2023/06/27 05:20:52;;;;;;;9.77;1.88;;;;;;;24.05;69.81;99471.97;5094004;28;20042;-84
2023/06/27 05:23:18;;;;;;;4.25;2.92;;;;;;;24.24;69.04;99504.66;5097754;28;20516;-84
2023/06/27 05:25:44;;;;;;;5.57;3.63;;;;;;;24.26;71.02;99518.88;5094399;28;20098;-85
2023/06/27 05:28:09;;;;;;;7.13;4.22;;;;;;;24.82;68.28;99538.97;5095964;28;20027;-85
2023/06/27 05:30:35;;;;;;;5.68;3.63;;;;;;;24.44;69.68;99513.09;5093326;28;20111;-84
2023/06/27 05:33:03;;;;;;;6.28;3.42;;;;;;;25.26;70.17;99534.66;5093178;28;20182;-85
2023/06/27 05:35:29;;;;;;;5.93;3.47;;;;;;;25.35;67.64;99506.97;5076871;28;20077;-84
2023/06/27 05:37:54;;;;;;;4.88;2.67;;;;;;;25.27;67.26;99493.22;5091840;28;20039;-85
2023/06/27 05:40:20;;;;;;;6.53;3.28;;;;;;;25.98;65.55;99522.69;5090006;28;20543;-87
2023/06/27 05:42:45;;;;;;;9.73;3.50;;;;;;;25.90;65.66;99522.41;5093245;28;20047;-86
2023/06/27 05:45:11;;;;;;;5.38;3.00;;;;;;;25.62;65.17;99494.09;5093038;28;20491;-84
2023/06/27 05:47:36;;;;;;;5.20;3.60;;;;;;;25.71;64.59;99520.34;5094053;28;20086;-83
2023/06/27 05:50:02;;;;;;;5.88;3.08;;;;;;;25.71;66.49;99498.75;5091969;28;20643;-86
2023/06/27 05:52:30;;;;;;;5.50;3.65;;;;;;;26.38;63.99;99522.06;5075262;28;20027;-86
2023/06/27 05:54:56;;;;;;;5.50;3.83;;;;;;;25.94;62.70;99509.53;5094126;28;20078;-86
2023/06/27 05:57:22;;;;;;;8.23;2.78;;;;;;;25.58;64.08;99525.00;5095124;28;20019;-85
2023/06/27 05:59:47;;;;;;;3.22;2.42;;;;;;;25.86;63.52;99510.16;5092968;28;20122;-86
2023/06/27 06:02:13;;;;;;;5.45;3.65;;;;;;;25.81;62.18;99510.53;5088575;28;20027;-85
2023/06/27 06:04:38;;;;;;;6.25;3.42;;;;;;;25.80;64.84;99497.16;5077636;28;20625;-82
2023/06/27 06:07:04;;;;;;;4.47;3.03;;;;;;;26.27;61.87;99509.47;5090708;28;20016;-83
2023/06/27 06:09:30;;;;;;;7.40;3.78;;;;;;;26.51;63.04;99537.25;5092690;28;20044;-81
2023/06/27 06:11:57;;;;;;;9.27;3.58;;;;;;;26.67;62.22;99526.03;5091153;28;20114;-82
2023/06/27 06:14:23;;;;;;;6.70;3.35;;;;;;;27.41;60.24;99542.22;5097632;28;20043;-83
2023/06/27 06:16:49;;;;;;;5.15;3.17;;;;;;;27.47;59.49;99516.44;5095789;28;20028;-81
2023/06/27 06:19:14;;;;;;;4.15;3.03;;;;;;;27.54;57.84;99546.56;5092129;28;20024;-84
2023/06/27 06:21:40;;;;;;;6.20;4.03;;;;;;;27.64;58.67;99534.75;5105050;28;20036;-84
2023/06/27 06:24:08;;;;;;;7.53;3.70;;;;;;;27.42;58.76;99514.16;5100403;28;20032;-84
2023/06/27 06:26:35;;;;;;;5.25;3.38;;;;;;;27.75;58.97;99492.31;5103850;27;20137;-83
2023/06/27 06:29:01;;;;;;;8.55;3.97;;;;;;;28.29;56.92;99518.13;5112869;28;20031;-83
2023/06/27 06:31:26;;;;;;;13.00;3.50;;;;;;;28.61;56.39;99508.91;5104687;27;20110;-82
2023/06/27 06:33:53;;;;;;;7.38;3.80;;;;;;;28.90;55.38;99499.84;5100783;28;20528;-83
2023/06/27 06:36:19;;;;;;;4.78;3.05;;;;;;;28.88;55.32;99504.56;5105940;28;20035;-82
2023/06/27 06:38:44;;;;;;;8.75;4.38;;;;;;;28.89;51.06;99460.16;5103407;28;20515;-83
2023/06/27 06:41:10;;;;;;;6.03;2.83;;;;;;;29.01;51.15;99466.25;5096531;28;20019;-83
2023/06/27 06:43:35;;;;;;;6.78;3.00;;;;;;;29.43;53.77;99515.59;5090859;28;20048;-83
2023/06/27 06:46:01;;;;;;;3.38;2.15;;;;;;;29.33;51.08;99503.91;5103553;28;20023;-83
2023/06/27 06:48:26;;;;;;;4.00;2.60;;;;;;;28.98;49.81;99478.28;5103783;27;20031;-83
2023/06/27 06:50:53;;;;;;;3.72;1.98;;;;;;;28.61;50.45;99519.75;5096535;28;20024;-83
2023/06/27 06:53:19;;;;;;;3.65;1.73;;;;;;;28.68;51.34;99525.44;5096471;28;20181;-84
2023/06/27 06:55:45;;;;;;;4.78;1.85;;;;;;;28.44;52.27;99504.13;5092721;28;20576;-85
2023/06/27 06:58:11;;;;;;;3.65;2.10;;;;;;;28.87;51.20;99487.44;5098375;28;20160;-84
2023/06/27 07:00:36;;;;;;;5.15;2.60;;;;;;;28.81;51.62;99503.44;5097579;28;20128;-84
2023/06/27 07:03:08;;;;;;;9.38;2.65;;;;;;;28.65;51.58;99482.31;5094474;28;20047;-84
2023/06/27 07:05:38;;;;;;;4.25;2.45;;;;;;;28.39;53.38;99499.13;5082440;28;20032;-83
2023/06/27 07:08:04;;;;;;;3.45;1.90;;;;;;;28.82;50.39;99464.44;5090619;28;20024;-84
2023/06/27 07:10:30;;;;;;;3.50;2.00;;;;;;;29.33;48.56;99460.44;5092201;28;20050;-84
2023/06/27 07:12:55;;;;;;;2.60;1.73;;;;;;;29.24;48.55;99470.38;5094913;28;20035;-83
2023/06/27 07:15:23;;;;;;;3.55;1.63;;;;;;;29.36;49.15;99492.75;5101591;28;20020;-83
2023/06/27 07:17:50;;;;;;;3.22;2.08;;;;;;;29.96;47.31;99496.91;5101460;28;20028;-83
2023/06/27 07:20:16;;;;;;;3.65;1.67;;;;;;;30.25;45.22;99483.13;5098555;28;20027;-85
2023/06/27 07:22:42;;;;;;;2.72;1.40;;;;;;;29.99;44.89;99488.47;5100789;28;20409;-85
2023/06/27 07:25:08;;;;;;;3.38;1.60;;;;;;;29.99;44.96;99472.16;5101185;28;20069;-84
2023/06/27 07:27:33;;;;;;;3.42;1.88;;;;;;;30.29;44.41;99476.38;5093849;28;20031;-83
2023/06/27 07:30:00;;;;;;;4.50;1.75;;;;;;;30.37;45.99;99478.31;5094473;28;20427;-87
2023/06/27 07:32:26;;;;;;;1.98;1.20;;;;;;;30.10;46.09;99500.97;5101150;28;20036;-85
2023/06/27 07:34:51;;;;;;;2.22;1.45;;;;;;;30.24;44.05;99480.56;5088509;28;20032;-85
2023/06/27 07:37:17;;;;;;;15.30;2.40;;;;;;;30.44;43.46;99487.56;5096723;28;20077;-85
2023/06/27 07:39:42;;;;;;;1.73;1.30;;;;;;;30.68;43.01;99472.47;5078677;28;20036;-84
2023/06/27 07:42:08;;;;;;;3.05;1.50;;;;;;;30.95;43.30;99495.13;5090531;28;20447;-84
2023/06/27 07:44:34;;;;;;;1.52;1.38;;;;;;;30.78;41.12;99469.66;5093317;28;20129;-84
2023/06/27 07:47:00;;;;;;;3.20;2.20;;;;;;;31.28;42.32;99459.94;5093749;28;20665;-85
2023/06/27 07:49:25;;;;;;;2.42;1.50;;;;;;;31.33;40.17;99465.78;5097374;28;20034;-84
2023/06/27 07:51:51;;;;;;;2.15;1.52;;;;;;;31.24;41.86;99490.22;5100333;28;20105;-85
2023/06/27 07:54:21;;;;;;;3.72;1.83;;;;;;;31.56;40.27;99474.25;5094548;28;20028;-84
2023/06/27 07:56:47;;;;;;;3.33;1.92;;;;;;;31.55;39.16;99473.38;5077438;28;20088;-85
2023/06/27 07:59:13;;;;;;;2.80;1.48;;;;;;;31.58;39.00;99494.88;5090716;28;20026;-84
2023/06/27 08:01:42;;;;;;;1.75;1.13;;;;;;;31.27;39.69;99466.44;5099994;28;20024;-84
2023/06/27 08:04:07;;;;;;;3.28;1.58;;;;;;;31.18;40.59;99479.97;5096075;28;20086;-84
2023/06/27 08:06:33;;;;;;;4.85;1.33;;;;;;;31.76;39.08;99453.88;5099095;28;20016;-84
2023/06/27 08:08:58;;;;;;;7.03;3.33;;;;;;;31.97;39.18;99474.38;5093408;28;20516;-85
2023/06/27 08:11:24;;;;;;;5.20;2.55;;;;;;;32.20;40.58;99455.53;5089677;28;20024;-84
2023/06/27 08:13:49;;;;;;;2.83;1.60;;;;;;;32.83;37.35;99475.03;5090780;28;20111;-84
2023/06/27 08:16:15;;;;;;;3.45;2.17;;;;;;;33.07;39.65;99467.81;5097109;28;20035;-83
2023/06/27 08:18:40;;;;;;;3.45;2.40;;;;;;;33.08;36.99;99480.44;5097831;28;20110;-84
2023/06/27 08:21:06;;;;;;;2.80;2.10;;;;;;;33.23;36.81;99445.94;5099463;28;20218;-84
2023/06/27 08:23:31;;;;;;;4.28;2.47;;;;;;;33.10;37.76;99481.97;5100411;28;20140;-84
2023/06/27 08:25:57;;;;;;;3.22;1.92;;;;;;;33.28;36.12;99473.59;5075505;28;20130;-84
2023/06/27 08:28:22;;;;;;;3.75;2.42;;;;;;;33.06;37.31;99464.22;5095207;28;20603;-85
2023/06/27 08:30:47;;;;;;;3.22;2.10;;;;;;;33.63;34.63;99465.94;5091854;28;20051;-85
2023/06/27 08:33:13;;;;;;;7.75;1.55;;;;;;;33.78;35.14;99451.53;5091460;28;20467;-84
2023/06/27 08:35:38;;;;;;;1.88;1.15;;;;;;;33.21;34.58;99466.25;5090132;28;20024;-84
2023/06/27 08:38:04;;;;;;;5.68;3.80;;;;;;;33.66;35.77;99442.84;5088654;28;20489;-84
2023/06/27 08:40:35;;;;;;;3.50;2.03;;;;;;;33.93;35.48;99437.97;5096836;28;20042;-84
2023/06/27 08:43:00;;;;;;;4.43;1.88;;;;;;;34.19;36.86;99441.19;5097940;28;20028;-84
2023/06/27 08:45:26;;;;;;;4.93;1.95;;;;;;;34.45;33.75;99437.25;5109814;28;20551;-83
2023/06/27 08:47:51;;;;;;;4.32;2.28;;;;;;;33.69;33.53;99458.88;5109796;28;20405;-83
2023/06/27 08:50:17;;;;;;;8.20;2.70;;;;;;;33.83;32.07;99451.84;5109438;28;20035;-82
2023/06/27 08:52:45;;;;;;;3.33;1.60;;;;;;;33.20;33.05;99462.69;5110586;28;20027;-82
2023/06/27 08:55:19;;;;;;;2.20;1.20;;;;;;;33.14;35.07;99447.81;5110358;28;20554;-82
2023/06/27 08:57:46;;;;;;;3.38;1.60;;;;;;;32.95;33.67;99459.13;5107767;28;20027;-83
2023/06/27 09:00:19;;;;;;;3.65;1.52;;;;;;;32.62;33.45;99410.84;5089813;28;20063;-83
2023/06/27 09:02:47;;;;;;;2.10;1.55;;;;;;;33.23;34.22;99442.34;5090484;28;20110;-83
2023/06/27 09:05:13;;;;;;;4.50;1.67;;;;;;;33.13;34.54;99447.97;5089355;28;20085;-83
2023/06/27 09:07:38;;;;;;;3.20;1.42;;;;;;;32.85;34.45;99451.13;5101695;28;20520;-83
2023/06/27 09:10:04;;;;;;;4.32;1.17;;;;;;;33.11;33.06;99417.25;5110057;28;20027;-83
2023/06/27 09:12:31;;;;;;;2.08;1.30;;;;;;;33.11;35.52;99444.59;5110112;28;20035;-84
2023/06/27 09:14:57;;;;;;;2.78;1.88;;;;;;;33.38;33.67;99426.91;5110147;28;20057;-83
2023/06/27 09:17:22;;;;;;;2.22;1.60;;;;;;;33.20;32.81;99432.63;5100460;28;20111;-83
2023/06/27 09:19:48;;;;;;;4.35;1.67;;;;;;;33.27;33.24;99410.91;5089315;28;20025;-83
2023/06/27 09:22:15;;;;;;;1.35;1.15;;;;;;;33.56;32.20;99421.19;5089558;28;20137;-83
2023/06/27 09:24:41;;;;;;;4.20;1.60;;;;;;;33.67;31.40;99398.91;5097606;28;20546;-85
2023/06/27 09:27:28;;;;;;;3.13;1.52;;;;;;;33.89;31.99;99418.31;5092528;28;20036;-83
2023/06/27 09:29:54;;;;;;;2.75;1.75;;;;;;;33.65;32.98;99413.81;5089179;28;20038;-83
2023/06/27 09:32:19;;;;;;;2.35;1.27;;;;;;;34.06;32.06;99421.78;5104778;28;20477;-84
2023/06/27 09:34:45;;;;;;;1.63;1.25;;;;;;;33.32;33.22;99386.63;5109477;28;20047;-83
2023/06/27 09:37:10;;;;;;;4.07;1.75;;;;;;;33.98;32.82;99413.63;5109442;28;20542;-84
2023/06/27 09:39:36;;;;;;;1.95;1.00;;;;;;;33.30;32.45;99395.00;5109308;28;20028;-83
2023/06/27 09:42:01;;;;;;;2.47;1.13;;;;;;;33.32;33.59;99433.97;5108916;28;20092;-84
2023/06/27 09:44:27;;;;;;;1.77;1.13;;;;;;;32.61;38.21;99403.69;5109010;28;20138;-83
2023/06/27 09:46:53;;;;;;;3.47;1.40;;;;;;;33.11;32.58;99395.41;5098436;28;20036;-84
2023/06/27 09:49:20;;;;;;;5.00;1.88;;;;;;;33.26;31.44;99429.19;5100943;28;20585;-86
2023/06/27 09:51:49;;;;;;;1.45;0.88;;;;;;;33.07;31.92;99415.91;5096046;28;20508;-83
2023/06/27 09:54:20;;;;;;;2.50;1.85;;;;;;;33.16;31.88;99382.91;5093134;28;20028;-83
2023/06/27 09:56:49;;;;;;;3.05;1.38;;;;;;;33.72;31.62;99407.47;5093288;28;20032;-84
2023/06/27 09:59:17;;;;;;;3.95;1.60;;;;;;;33.90;31.31;99429.06;5093265;28;20028;-83
2023/06/27 10:01:43;;;;;;;2.20;1.10;;;;;;;33.36;31.80;99437.19;5092578;28;20032;-83
2023/06/27 10:04:09;;;;;;;2.90;1.77;;;;;;;33.88;30.89;99414.72;5092525;28;20031;-83
2023/06/27 10:06:35;;;;;;;6.32;1.40;;;;;;;33.83;30.88;99413.56;5092328;28;20498;-83
2023/06/27 10:09:01;;;;;;;1.77;1.15;;;;;;;33.95;30.24;99434.00;5092940;28;20047;-82
2023/06/27 10:11:27;;;;;;;2.42;1.02;;;;;;;34.04;29.61;99404.69;5073654;28;20127;-83
2023/06/27 10:13:53;;;;;;;1.98;1.15;;;;;;;34.20;32.24;99418.28;5092805;28;20077;-82
2023/06/27 10:16:20;;;;;;;3.15;1.80;;;;;;;34.01;33.26;99392.22;5090487;28;20027;-86
2023/06/27 10:18:47;;;;;;;3.60;1.80;;;;;;;34.37;31.30;99423.63;5112713;28;20059;-83
2023/06/27 10:21:14;;;;;;;3.50;1.50;;;;;;;34.13;30.40;99411.81;5113589;28;20393;-82
2023/06/27 10:23:43;;;;;;;10.88;1.63;;;;;;;34.50;30.10;99406.59;5113191;28;20073;-82
2023/06/27 10:26:11;;;;;;;5.35;1.27;;;;;;;34.15;31.68;99395.22;5113425;28;20023;-82
2023/06/27 10:28:37;;;;;;;3.90;1.90;;;;;;;33.69;30.64;99418.75;5113336;28;20027;-82
2023/06/27 10:31:04;;;;;;;4.05;1.92;;;;;;;34.18;30.43;99392.94;5113280;28;20072;-83
2023/06/27 10:33:32;;;;;;;3.00;1.83;;;;;;;34.43;31.54;99381.81;5113164;28;20031;-83
2023/06/27 10:36:05;;;;;;;2.00;1.23;;;;;;;34.37;30.98;99399.84;5111151;28;20027;-83
2023/06/27 10:38:45;;;;;;;3.15;1.63;;;;;;;34.13;29.70;99370.78;5092662;28;20383;-83
2023/06/27 10:41:33;;;;;;;4.45;1.77;;;;;;;33.86;31.23;99374.91;5092631;28;20067;-84
2023/06/27 10:44:09;;;;;;;4.30;1.98;;;;;;;34.18;31.20;99353.81;5092714;28;20138;-84
2023/06/27 10:46:34;;;;;;;1.85;1.13;;;;;;;34.11;28.10;99396.59;5091500;28;20037;-84
2023/06/27 10:49:03;;;;;;;2.47;1.10;;;;;;;33.44;29.44;99362.50;5091638;28;20383;-84
2023/06/27 10:51:41;;;;;;;2.53;1.58;;;;;;;33.45;29.52;99380.59;5093808;28;20035;-85
2023/06/27 10:54:12;;;;;;;1.02;0.75;;;;;;;33.96;28.41;99386.47;5094112;28;20040;-86
2023/06/27 10:56:39;;;;;;;2.85;1.95;;;;;;;33.78;29.67;99384.00;5091655;28;20035;-84
2023/06/27 10:59:08;;;;;;;1.65;1.27;;;;;;;33.82;31.03;99363.47;5091193;28;20051;-84
2023/06/27 11:01:35;;;;;;;2.03;1.02;;;;;;;34.12;29.78;99370.94;5106717;27;20035;-84
2023/06/27 11:04:16;;;;;;;1.92;0.98;;;;;;;34.25;29.47;99383.00;5132146;27;20030;-83
2023/06/27 11:06:45;;;;;;;2.33;0.95;;;;;;;34.19;28.71;99377.41;5132453;27;20039;-85
2023/06/27 11:09:16;;;;;;;5.18;0.73;;;;;;;33.94;26.96;99342.03;5099391;27;20069;-84
2023/06/27 11:11:53;;;;;;;2.00;1.63;;;;;;;34.04;27.81;99364.50;5095326;28;20893;-84
2023/06/27 11:14:39;;;;;;;1.70;0.85;;;;;;;34.64;29.80;99352.91;5095505;28;20031;-85
2023/06/27 11:17:04;;;;;;;2.80;0.68;;;;;;;35.02;29.36;99348.22;5098108;28;20036;-84
2023/06/27 11:19:32;;;;;;;6.30;1.10;;;;;;;34.79;26.10;99351.88;5075361;28;20032;-84
2023/06/27 11:21:59;;;;;;;1.90;1.13;;;;;;;34.66;28.20;99346.16;5090831;28;20031;-85
2023/06/27 11:24:26;;;;;;;1.67;0.63;;;;;;;34.44;26.92;99328.78;5099158;28;20016;-84
2023/06/27 11:26:53;;;;;;;2.53;1.25;;;;;;;34.66;25.02;99354.38;5097347;28;20084;-83
2023/06/27 11:29:18;;;;;;;2.78;0.88;;;;;;;34.41;25.55;99329.16;5076863;28;20115;-86
2023/06/27 11:31:44;;;;;;;2.30;1.35;;;;;;;34.43;25.52;99336.16;5090029;28;20177;-85
2023/06/27 11:34:09;;;;;;;1.10;0.80;;;;;;;34.55;23.71;99327.47;5099579;27;20051;-84